sensor_id;sensor_type;location;lat;lon;timestamp;P1;durP1;ratioP1;P2;durP2;ratioP2
13866;SDS011;7003;46.982;15.248;2024-03-25T00:02:01;3.20;;;0.50;;
13866;SDS011;7003;46.982;15.248;2024-03-25T00:04:37;1.27;;;0.73;;
13866;SDS011;7003;46.982;15.248;2024-03-25T00:07:04;2.40;;;0.77;;
13866;SDS011;7003;46.982;15.248;2024-03-25T00:09:30;0.50;;;0.50;;
13866;SDS011;7003;46.982;15.248;2024-03-25T00:11:57;1.60;;;0.80;;
13866;SDS011;7003;46.982;15.248;2024-03-25T00:14:25;0.53;;;0.53;;
13866;SDS011;7003;46.982;15.248;2024-03-25T00:16:52;0.97;;;0.60;;
13866;SDS011;7003;46.982;15.248;2024-03-25T00:19:20;0.60;;;0.50;;
13866;SDS011;7003;46.982;15.248;2024-03-25T00:21:47;1.40;;;1.30;;
13866;SDS011;7003;46.982;15.248;2024-03-25T00:24:16;0.23;;;0.23;;
13866;SDS011;7003;46.982;15.248;2024-03-25T00:26:43;5.20;;;2.43;;
13866;SDS011;7003;46.982;15.248;2024-03-25T00:29:12;1.50;;;0.63;;
13866;SDS011;7003;46.982;15.248;2024-03-25T00:31:43;0.57;;;0.57;;
13866;SDS011;7003;46.982;15.248;2024-03-25T00:34:12;0.83;;;0.50;;
13866;SDS011;7003;46.982;15.248;2024-03-25T00:36:42;1.03;;;0.83;;
13866;SDS011;7003;46.982;15.248;2024-03-25T00:39:09;0.20;;;0.20;;
13866;SDS011;7003;46.982;15.248;2024-03-25T00:41:36;0.33;;;0.33;;
13866;SDS011;7003;46.982;15.248;2024-03-25T00:44:02;0.60;;;0.60;;
13866;SDS011;7003;46.982;15.248;2024-03-25T00:46:30;0.40;;;0.40;;
13866;SDS011;7003;46.982;15.248;2024-03-25T00:48:57;0.37;;;0.37;;
13866;SDS011;7003;46.982;15.248;2024-03-25T00:51:24;1.17;;;0.77;;
13866;SDS011;7003;46.982;15.248;2024-03-25T00:53:50;0.30;;;0.30;;
13866;SDS011;7003;46.982;15.248;2024-03-25T00:56:20;1.33;;;0.87;;
13866;SDS011;7003;46.982;15.248;2024-03-25T00:58:46;2.13;;;1.07;;
13866;SDS011;7003;46.982;15.248;2024-03-25T01:01:13;0.30;;;0.30;;
13866;SDS011;7003;46.982;15.248;2024-03-25T01:03:39;0.53;;;0.40;;
13866;SDS011;7003;46.982;15.248;2024-03-25T01:06:08;0.63;;;0.47;;
13866;SDS011;7003;46.982;15.248;2024-03-25T01:08:35;0.57;;;0.57;;
13866;SDS011;7003;46.982;15.248;2024-03-25T01:11:02;0.80;;;0.43;;
13866;SDS011;7003;46.982;15.248;2024-03-25T01:13:31;1.03;;;0.73;;
13866;SDS011;7003;46.982;15.248;2024-03-25T01:15:58;0.83;;;0.60;;
13866;SDS011;7003;46.982;15.248;2024-03-25T01:18:26;0.30;;;0.30;;
13866;SDS011;7003;46.982;15.248;2024-03-25T01:20:53;0.70;;;0.70;;
13866;SDS011;7003;46.982;15.248;2024-03-25T01:23:21;0.47;;;0.47;;
13866;SDS011;7003;46.982;15.248;2024-03-25T01:25:49;0.40;;;0.40;;
13866;SDS011;7003;46.982;15.248;2024-03-25T01:28:15;0.40;;;0.40;;
13866;SDS011;7003;46.982;15.248;2024-03-25T01:30:42;0.77;;;0.77;;
13866;SDS011;7003;46.982;15.248;2024-03-25T01:33:09;0.20;;;0.20;;
13866;SDS011;7003;46.982;15.248;2024-03-25T01:35:36;0.97;;;0.87;;
13866;SDS011;7003;46.982;15.248;2024-03-25T01:38:02;0.80;;;0.80;;
13866;SDS011;7003;46.982;15.248;2024-03-25T01:40:31;0.50;;;0.50;;
13866;SDS011;7003;46.982;15.248;2024-03-25T01:43:00;1.67;;;0.80;;
13866;SDS011;7003;46.982;15.248;2024-03-25T01:45:30;1.87;;;1.13;;
13866;SDS011;7003;46.982;15.248;2024-03-25T01:47:57;0.23;;;0.17;;
13866;SDS011;7003;46.982;15.248;2024-03-25T01:50:25;0.90;;;0.50;;
13866;SDS011;7003;46.982;15.248;2024-03-25T01:52:52;0.37;;;0.37;;
13866;SDS011;7003;46.982;15.248;2024-03-25T01:55:24;0.77;;;0.30;;
13866;SDS011;7003;46.982;15.248;2024-03-25T01:57:55;0.10;;;0.10;;
13866;SDS011;7003;46.982;15.248;2024-03-25T02:00:22;1.70;;;0.63;;
13866;SDS011;7003;46.982;15.248;2024-03-25T02:02:50;0.40;;;0.40;;
13866;SDS011;7003;46.982;15.248;2024-03-25T02:05:18;0.20;;;0.20;;
13866;SDS011;7003;46.982;15.248;2024-03-25T02:07:44;0.93;;;0.80;;
13866;SDS011;7003;46.982;15.248;2024-03-25T02:10:12;0.60;;;0.60;;
13866;SDS011;7003;46.982;15.248;2024-03-25T02:12:40;0.30;;;0.30;;
13866;SDS011;7003;46.982;15.248;2024-03-25T02:15:09;0.20;;;0.20;;
13866;SDS011;7003;46.982;15.248;2024-03-25T02:17:38;0.33;;;0.33;;
13866;SDS011;7003;46.982;15.248;2024-03-25T02:20:06;0.33;;;0.23;;
13866;SDS011;7003;46.982;15.248;2024-03-25T02:22:33;0.40;;;0.40;;
13866;SDS011;7003;46.982;15.248;2024-03-25T02:25:02;0.93;;;0.77;;
13866;SDS011;7003;46.982;15.248;2024-03-25T02:27:35;0.37;;;0.37;;
13866;SDS011;7003;46.982;15.248;2024-03-25T02:30:03;0.33;;;0.30;;
13866;SDS011;7003;46.982;15.248;2024-03-25T02:32:31;0.20;;;0.20;;
13866;SDS011;7003;46.982;15.248;2024-03-25T02:34:58;0.47;;;0.47;;
13866;SDS011;7003;46.982;15.248;2024-03-25T02:37:25;0.40;;;0.40;;
13866;SDS011;7003;46.982;15.248;2024-03-25T02:39:55;0.17;;;0.17;;
13866;SDS011;7003;46.982;15.248;2024-03-25T02:42:24;4.43;;;0.50;;
13866;SDS011;7003;46.982;15.248;2024-03-25T02:44:56;0.20;;;0.20;;
13866;SDS011;7003;46.982;15.248;2024-03-25T02:47:24;0.30;;;0.30;;
13866;SDS011;7003;46.982;15.248;2024-03-25T02:50:00;0.77;;;0.40;;
13866;SDS011;7003;46.982;15.248;2024-03-25T02:52:27;0.80;;;0.80;;
13866;SDS011;7003;46.982;15.248;2024-03-25T02:54:54;0.30;;;0.30;;
13866;SDS011;7003;46.982;15.248;2024-03-25T02:57:20;0.53;;;0.53;;
13866;SDS011;7003;46.982;15.248;2024-03-25T02:59:49;0.20;;;0.20;;
13866;SDS011;7003;46.982;15.248;2024-03-25T03:02:17;2.20;;;0.90;;
13866;SDS011;7003;46.982;15.248;2024-03-25T03:04:44;0.83;;;0.50;;
13866;SDS011;7003;46.982;15.248;2024-03-25T03:07:10;0.10;;;0.10;;
13866;SDS011;7003;46.982;15.248;2024-03-25T03:09:37;1.70;;;0.60;;
13866;SDS011;7003;46.982;15.248;2024-03-25T03:12:06;0.60;;;0.60;;
13866;SDS011;7003;46.982;15.248;2024-03-25T03:14:36;0.13;;;0.13;;
13866;SDS011;7003;46.982;15.248;2024-03-25T03:17:05;0.57;;;0.57;;
13866;SDS011;7003;46.982;15.248;2024-03-25T03:19:35;2.83;;;0.70;;
13866;SDS011;7003;46.982;15.248;2024-03-25T03:22:03;0.40;;;0.20;;
13866;SDS011;7003;46.982;15.248;2024-03-25T03:24:33;0.40;;;0.40;;
13866;SDS011;7003;46.982;15.248;2024-03-25T03:27:02;3.60;;;0.70;;
13866;SDS011;7003;46.982;15.248;2024-03-25T03:29:28;0.30;;;0.30;;
13866;SDS011;7003;46.982;15.248;2024-03-25T03:31:55;0.43;;;0.43;;
13866;SDS011;7003;46.982;15.248;2024-03-25T03:34:21;0.30;;;0.30;;
13866;SDS011;7003;46.982;15.248;2024-03-25T03:36:49;0.10;;;0.10;;
13866;SDS011;7003;46.982;15.248;2024-03-25T03:39:15;0.37;;;0.20;;
13866;SDS011;7003;46.982;15.248;2024-03-25T03:41:43;0.40;;;0.40;;
13866;SDS011;7003;46.982;15.248;2024-03-25T03:44:09;0.20;;;0.20;;
13866;SDS011;7003;46.982;15.248;2024-03-25T03:46:37;0.63;;;0.20;;
13866;SDS011;7003;46.982;15.248;2024-03-25T03:49:04;0.40;;;0.40;;
13866;SDS011;7003;46.982;15.248;2024-03-25T03:51:31;0.67;;;0.57;;
13866;SDS011;7003;46.982;15.248;2024-03-25T03:53:58;0.20;;;0.20;;
13866;SDS011;7003;46.982;15.248;2024-03-25T03:56:26;0.90;;;0.70;;
13866;SDS011;7003;46.982;15.248;2024-03-25T03:58:52;0.60;;;0.40;;
13866;SDS011;7003;46.982;15.248;2024-03-25T04:01:19;1.10;;;1.07;;
13866;SDS011;7003;46.982;15.248;2024-03-25T04:03:45;0.63;;;0.63;;
13866;SDS011;7003;46.982;15.248;2024-03-25T04:06:15;0.77;;;0.77;;
13866;SDS011;7003;46.982;15.248;2024-03-25T04:08:43;0.30;;;0.30;;
13866;SDS011;7003;46.982;15.248;2024-03-25T04:11:12;0.97;;;0.60;;
13866;SDS011;7003;46.982;15.248;2024-03-25T04:13:38;0.37;;;0.37;;
13866;SDS011;7003;46.982;15.248;2024-03-25T04:16:06;0.67;;;0.67;;
13866;SDS011;7003;46.982;15.248;2024-03-25T04:18:35;1.10;;;0.53;;
13866;SDS011;7003;46.982;15.248;2024-03-25T04:21:05;2.10;;;1.03;;
13866;SDS011;7003;46.982;15.248;2024-03-25T04:23:39;0.63;;;0.63;;
13866;SDS011;7003;46.982;15.248;2024-03-25T04:26:09;0.30;;;0.30;;
13866;SDS011;7003;46.982;15.248;2024-03-25T04:28:38;1.00;;;0.57;;
13866;SDS011;7003;46.982;15.248;2024-03-25T04:31:07;0.57;;;0.57;;
13866;SDS011;7003;46.982;15.248;2024-03-25T04:33:37;1.00;;;0.80;;
13866;SDS011;7003;46.982;15.248;2024-03-25T04:36:06;0.50;;;0.50;;
13866;SDS011;7003;46.982;15.248;2024-03-25T04:38:33;0.50;;;0.50;;
13866;SDS011;7003;46.982;15.248;2024-03-25T04:41:00;0.13;;;0.13;;
13866;SDS011;7003;46.982;15.248;2024-03-25T04:43:30;0.30;;;0.30;;
13866;SDS011;7003;46.982;15.248;2024-03-25T04:46:04;0.60;;;0.60;;
13866;SDS011;7003;46.982;15.248;2024-03-25T04:48:33;0.47;;;0.47;;
13866;SDS011;7003;46.982;15.248;2024-03-25T04:51:01;0.30;;;0.30;;
13866;SDS011;7003;46.982;15.248;2024-03-25T04:53:30;0.57;;;0.57;;
13866;SDS011;7003;46.982;15.248;2024-03-25T04:55:59;0.60;;;0.50;;
13866;SDS011;7003;46.982;15.248;2024-03-25T04:58:30;0.73;;;0.73;;
13866;SDS011;7003;46.982;15.248;2024-03-25T05:00:58;0.90;;;0.60;;
13866;SDS011;7003;46.982;15.248;2024-03-25T05:03:29;0.50;;;0.50;;
13866;SDS011;7003;46.982;15.248;2024-03-25T05:05:58;0.30;;;0.30;;
13866;SDS011;7003;46.982;15.248;2024-03-25T05:08:27;1.63;;;1.33;;
13866;SDS011;7003;46.982;15.248;2024-03-25T05:10:56;1.17;;;0.30;;
13866;SDS011;7003;46.982;15.248;2024-03-25T05:13:26;1.20;;;0.30;;
13866;SDS011;7003;46.982;15.248;2024-03-25T05:15:54;0.60;;;0.57;;
13866;SDS011;7003;46.982;15.248;2024-03-25T05:18:26;0.90;;;0.90;;
13866;SDS011;7003;46.982;15.248;2024-03-25T05:20:56;0.77;;;0.77;;
13866;SDS011;7003;46.982;15.248;2024-03-25T05:23:25;0.27;;;0.27;;
13866;SDS011;7003;46.982;15.248;2024-03-25T05:25:54;1.10;;;1.00;;
13866;SDS011;7003;46.982;15.248;2024-03-25T05:28:24;0.50;;;0.50;;
13866;SDS011;7003;46.982;15.248;2024-03-25T05:30:53;0.77;;;0.50;;
13866;SDS011;7003;46.982;15.248;2024-03-25T05:33:22;0.93;;;0.93;;
13866;SDS011;7003;46.982;15.248;2024-03-25T05:35:55;1.40;;;0.77;;
13866;SDS011;7003;46.982;15.248;2024-03-25T05:38:23;0.77;;;0.77;;
13866;SDS011;7003;46.982;15.248;2024-03-25T05:40:51;0.47;;;0.30;;
13866;SDS011;7003;46.982;15.248;2024-03-25T05:43:20;0.50;;;0.50;;
13866;SDS011;7003;46.982;15.248;2024-03-25T05:45:53;0.50;;;0.50;;
13866;SDS011;7003;46.982;15.248;2024-03-25T05:48:24;1.03;;;1.00;;
13866;SDS011;7003;46.982;15.248;2024-03-25T05:51:01;0.47;;;0.47;;
13866;SDS011;7003;46.982;15.248;2024-03-25T05:53:32;1.30;;;0.40;;
13866;SDS011;7003;46.982;15.248;2024-03-25T05:56:03;5.27;;;2.00;;
13866;SDS011;7003;46.982;15.248;2024-03-25T05:58:33;1.30;;;0.50;;
13866;SDS011;7003;46.982;15.248;2024-03-25T06:01:02;0.40;;;0.40;;
13866;SDS011;7003;46.982;15.248;2024-03-25T06:03:36;0.63;;;0.63;;
13866;SDS011;7003;46.982;15.248;2024-03-25T06:06:07;0.60;;;0.60;;
13866;SDS011;7003;46.982;15.248;2024-03-25T06:08:36;7.70;;;1.17;;
13866;SDS011;7003;46.982;15.248;2024-03-25T06:11:08;0.30;;;0.30;;
13866;SDS011;7003;46.982;15.248;2024-03-25T06:13:39;0.57;;;0.30;;
13866;SDS011;7003;46.982;15.248;2024-03-25T06:16:07;0.97;;;0.83;;
13866;SDS011;7003;46.982;15.248;2024-03-25T06:18:39;0.70;;;0.70;;
13866;SDS011;7003;46.982;15.248;2024-03-25T06:21:10;2.43;;;1.60;;
13866;SDS011;7003;46.982;15.248;2024-03-25T06:23:39;1.77;;;1.53;;
13866;SDS011;7003;46.982;15.248;2024-03-25T06:26:08;1.23;;;0.90;;
13866;SDS011;7003;46.982;15.248;2024-03-25T06:28:36;0.87;;;0.87;;
13866;SDS011;7003;46.982;15.248;2024-03-25T06:31:05;2.50;;;1.37;;
13866;SDS011;7003;46.982;15.248;2024-03-25T06:33:52;0.80;;;0.80;;
13866;SDS011;7003;46.982;15.248;2024-03-25T06:37:05;0.53;;;0.53;;
13866;SDS011;7003;46.982;15.248;2024-03-25T06:39:35;1.30;;;0.87;;
13866;SDS011;7003;46.982;15.248;2024-03-25T06:42:04;0.40;;;0.40;;
13866;SDS011;7003;46.982;15.248;2024-03-25T06:44:33;1.40;;;0.70;;
13866;SDS011;7003;46.982;15.248;2024-03-25T06:47:04;3.73;;;1.30;;
13866;SDS011;7003;46.982;15.248;2024-03-25T06:49:33;1.17;;;0.87;;
13866;SDS011;7003;46.982;15.248;2024-03-25T06:52:04;1.07;;;0.93;;
13866;SDS011;7003;46.982;15.248;2024-03-25T06:54:33;0.70;;;0.70;;
13866;SDS011;7003;46.982;15.248;2024-03-25T06:57:01;0.60;;;0.60;;
13866;SDS011;7003;46.982;15.248;2024-03-25T06:59:31;1.13;;;1.03;;
13866;SDS011;7003;46.982;15.248;2024-03-25T07:02:04;0.97;;;0.90;;
13866;SDS011;7003;46.982;15.248;2024-03-25T07:04:32;4.83;;;1.77;;
13866;SDS011;7003;46.982;15.248;2024-03-25T07:07:01;5.07;;;2.60;;
13866;SDS011;7003;46.982;15.248;2024-03-25T07:09:33;7.90;;;3.73;;
13866;SDS011;7003;46.982;15.248;2024-03-25T07:12:02;5.30;;;3.67;;
13866;SDS011;7003;46.982;15.248;2024-03-25T07:14:31;7.97;;;4.43;;
13866;SDS011;7003;46.982;15.248;2024-03-25T07:16:59;2.13;;;1.93;;
13866;SDS011;7003;46.982;15.248;2024-03-25T07:19:27;3.27;;;2.40;;
13866;SDS011;7003;46.982;15.248;2024-03-25T07:21:56;2.93;;;1.87;;
13866;SDS011;7003;46.982;15.248;2024-03-25T07:24:23;4.13;;;2.40;;
13866;SDS011;7003;46.982;15.248;2024-03-25T07:26:52;4.43;;;3.10;;
13866;SDS011;7003;46.982;15.248;2024-03-25T07:29:19;2.70;;;2.03;;
13866;SDS011;7003;46.982;15.248;2024-03-25T07:31:46;3.17;;;2.90;;
13866;SDS011;7003;46.982;15.248;2024-03-25T07:34:14;2.60;;;1.87;;
13866;SDS011;7003;46.982;15.248;2024-03-25T07:36:43;4.53;;;2.57;;
13866;SDS011;7003;46.982;15.248;2024-03-25T07:39:10;3.03;;;1.97;;
13866;SDS011;7003;46.982;15.248;2024-03-25T07:41:38;2.57;;;1.60;;
13866;SDS011;7003;46.982;15.248;2024-03-25T07:44:09;3.38;;;2.00;;
13866;SDS011;7003;46.982;15.248;2024-03-25T07:46:36;2.70;;;2.50;;
13866;SDS011;7003;46.982;15.248;2024-03-25T07:49:06;3.05;;;1.90;;
13866;SDS011;7003;46.982;15.248;2024-03-25T07:51:36;2.67;;;2.42;;
13866;SDS011;7003;46.982;15.248;2024-03-25T07:54:03;3.08;;;2.40;;
13866;SDS011;7003;46.982;15.248;2024-03-25T07:56:31;1.38;;;1.10;;
13866;SDS011;7003;46.982;15.248;2024-03-25T07:58:59;1.35;;;1.25;;
13866;SDS011;7003;46.982;15.248;2024-03-25T08:01:31;2.42;;;1.85;;
13866;SDS011;7003;46.982;15.248;2024-03-25T08:04:00;2.20;;;1.60;;
13866;SDS011;7003;46.982;15.248;2024-03-25T08:06:28;2.42;;;1.55;;
13866;SDS011;7003;46.982;15.248;2024-03-25T08:08:56;1.52;;;1.38;;
13866;SDS011;7003;46.982;15.248;2024-03-25T08:11:23;5.65;;;1.58;;
13866;SDS011;7003;46.982;15.248;2024-03-25T08:13:50;3.88;;;2.35;;
13866;SDS011;7003;46.982;15.248;2024-03-25T08:16:17;4.68;;;2.20;;
13866;SDS011;7003;46.982;15.248;2024-03-25T08:18:46;4.03;;;1.95;;
13866;SDS011;7003;46.982;15.248;2024-03-25T08:21:14;3.05;;;2.03;;
13866;SDS011;7003;46.982;15.248;2024-03-25T08:23:41;4.13;;;2.03;;
13866;SDS011;7003;46.982;15.248;2024-03-25T08:26:11;3.35;;;1.45;;
13866;SDS011;7003;46.982;15.248;2024-03-25T08:28:38;1.90;;;1.80;;
13866;SDS011;7003;46.982;15.248;2024-03-25T08:31:06;2.63;;;2.25;;
13866;SDS011;7003;46.982;15.248;2024-03-25T08:33:36;1.63;;;1.23;;
13866;SDS011;7003;46.982;15.248;2024-03-25T08:36:06;2.60;;;2.05;;
13866;SDS011;7003;46.982;15.248;2024-03-25T08:38:36;1.50;;;1.38;;
13866;SDS011;7003;46.982;15.248;2024-03-25T08:41:06;7.40;;;2.08;;
13866;SDS011;7003;46.982;15.248;2024-03-25T08:43:34;2.40;;;1.25;;
13866;SDS011;7003;46.982;15.248;2024-03-25T08:46:02;3.40;;;2.13;;
13866;SDS011;7003;46.982;15.248;2024-03-25T08:48:33;2.10;;;1.90;;
13866;SDS011;7003;46.982;15.248;2024-03-25T08:51:04;3.95;;;1.10;;
13866;SDS011;7003;46.982;15.248;2024-03-25T08:53:36;3.88;;;1.30;;
13866;SDS011;7003;46.982;15.248;2024-03-25T08:56:04;2.10;;;1.90;;
13866;SDS011;7003;46.982;15.248;2024-03-25T08:58:32;1.27;;;1.10;;
13866;SDS011;7003;46.982;15.248;2024-03-25T09:01:00;3.30;;;1.00;;
13866;SDS011;7003;46.982;15.248;2024-03-25T09:03:30;1.80;;;1.70;;
13866;SDS011;7003;46.982;15.248;2024-03-25T09:06:01;2.03;;;1.27;;
13866;SDS011;7003;46.982;15.248;2024-03-25T09:08:33;1.83;;;1.33;;
13866;SDS011;7003;46.982;15.248;2024-03-25T09:11:01;2.13;;;1.15;;
13866;SDS011;7003;46.982;15.248;2024-03-25T09:13:29;1.02;;;0.88;;
13866;SDS011;7003;46.982;15.248;2024-03-25T09:15:59;0.93;;;0.93;;
13866;SDS011;7003;46.982;15.248;2024-03-25T09:18:29;1.42;;;1.00;;
13866;SDS011;7003;46.982;15.248;2024-03-25T09:20:57;0.47;;;0.43;;
13866;SDS011;7003;46.982;15.248;2024-03-25T09:23:27;0.47;;;0.35;;
13866;SDS011;7003;46.982;15.248;2024-03-25T09:26:00;0.73;;;0.73;;
13866;SDS011;7003;46.982;15.248;2024-03-25T09:28:27;1.27;;;0.70;;
13866;SDS011;7003;46.982;15.248;2024-03-25T09:30:55;1.33;;;0.82;;
13866;SDS011;7003;46.982;15.248;2024-03-25T09:33:24;0.75;;;0.52;;
13866;SDS011;7003;46.982;15.248;2024-03-25T09:35:52;6.78;;;0.77;;
13866;SDS011;7003;46.982;15.248;2024-03-25T09:38:20;0.60;;;0.60;;
13866;SDS011;7003;46.982;15.248;2024-03-25T09:40:48;2.60;;;0.82;;
13866;SDS011;7003;46.982;15.248;2024-03-25T09:43:23;0.60;;;0.60;;
13866;SDS011;7003;46.982;15.248;2024-03-25T09:45:55;0.47;;;0.47;;
13866;SDS011;7003;46.982;15.248;2024-03-25T09:48:24;2.85;;;0.98;;
13866;SDS011;7003;46.982;15.248;2024-03-25T09:50:52;1.27;;;0.45;;
13866;SDS011;7003;46.982;15.248;2024-03-25T09:53:20;0.40;;;0.40;;
13866;SDS011;7003;46.982;15.248;2024-03-25T09:55:51;0.55;;;0.55;;
13866;SDS011;7003;46.982;15.248;2024-03-25T09:58:25;1.45;;;1.35;;
13866;SDS011;7003;46.982;15.248;2024-03-25T10:00:54;0.68;;;0.55;;
13866;SDS011;7003;46.982;15.248;2024-03-25T10:03:25;1.35;;;0.57;;
13866;SDS011;7003;46.982;15.248;2024-03-25T10:05:54;0.73;;;0.73;;
13866;SDS011;7003;46.982;15.248;2024-03-25T10:08:21;0.93;;;0.70;;
13866;SDS011;7003;46.982;15.248;2024-03-25T10:10:50;0.50;;;0.50;;
13866;SDS011;7003;46.982;15.248;2024-03-25T10:13:18;1.00;;;0.73;;
13866;SDS011;7003;46.982;15.248;2024-03-25T10:15:52;1.08;;;0.77;;
13866;SDS011;7003;46.982;15.248;2024-03-25T10:18:24;1.42;;;0.93;;
13866;SDS011;7003;46.982;15.248;2024-03-25T10:20:55;0.35;;;0.35;;
13866;SDS011;7003;46.982;15.248;2024-03-25T10:23:29;0.75;;;0.65;;
13866;SDS011;7003;46.982;15.248;2024-03-25T10:26:01;0.60;;;0.60;;
13866;SDS011;7003;46.982;15.248;2024-03-25T10:28:30;0.98;;;0.80;;
13866;SDS011;7003;46.982;15.248;2024-03-25T10:31:04;0.70;;;0.70;;
13866;SDS011;7003;46.982;15.248;2024-03-25T10:33:34;0.30;;;0.30;;
13866;SDS011;7003;46.982;15.248;2024-03-25T10:36:03;0.50;;;0.50;;
13866;SDS011;7003;46.982;15.248;2024-03-25T10:38:31;1.98;;;0.85;;
13866;SDS011;7003;46.982;15.248;2024-03-25T10:41:02;1.90;;;0.98;;
13866;SDS011;7003;46.982;15.248;2024-03-25T10:43:30;0.93;;;0.93;;
13866;SDS011;7003;46.982;15.248;2024-03-25T10:46:01;0.73;;;0.73;;
13866;SDS011;7003;46.982;15.248;2024-03-25T10:48:32;0.88;;;0.80;;
13866;SDS011;7003;46.982;15.248;2024-03-25T10:51:07;7.90;;;1.17;;
13866;SDS011;7003;46.982;15.248;2024-03-25T10:53:38;0.80;;;0.80;;
13866;SDS011;7003;46.982;15.248;2024-03-25T10:56:09;0.90;;;0.47;;
13866;SDS011;7003;46.982;15.248;2024-03-25T10:58:39;0.63;;;0.55;;
13866;SDS011;7003;46.982;15.248;2024-03-25T11:01:12;3.90;;;0.80;;
13866;SDS011;7003;46.982;15.248;2024-03-25T11:03:42;1.10;;;0.80;;
13866;SDS011;7003;46.982;15.248;2024-03-25T11:06:12;3.05;;;0.90;;
13866;SDS011;7003;46.982;15.248;2024-03-25T11:08:42;1.05;;;0.88;;
13866;SDS011;7003;46.982;15.248;2024-03-25T11:11:11;0.35;;;0.35;;
13866;SDS011;7003;46.982;15.248;2024-03-25T11:13:39;7.07;;;0.60;;
13866;SDS011;7003;46.982;15.248;2024-03-25T11:16:11;0.47;;;0.47;;
13866;SDS011;7003;46.982;15.248;2024-03-25T11:18:50;2.33;;;0.63;;
13866;SDS011;7003;46.982;15.248;2024-03-25T11:21:24;0.32;;;0.32;;
13866;SDS011;7003;46.982;15.248;2024-03-25T11:23:55;0.68;;;0.68;;
13866;SDS011;7003;46.982;15.248;2024-03-25T11:26:40;0.85;;;0.85;;
13866;SDS011;7003;46.982;15.248;2024-03-25T11:29:11;0.50;;;0.50;;
13866;SDS011;7003;46.982;15.248;2024-03-25T11:31:42;0.98;;;0.90;;
13866;SDS011;7003;46.982;15.248;2024-03-25T11:34:12;1.10;;;1.00;;
13866;SDS011;7003;46.982;15.248;2024-03-25T11:36:45;1.50;;;1.20;;
13866;SDS011;7003;46.982;15.248;2024-03-25T11:39:15;0.65;;;0.52;;
13866;SDS011;7003;46.982;15.248;2024-03-25T11:41:49;0.75;;;0.68;;
13866;SDS011;7003;46.982;15.248;2024-03-25T11:44:18;0.98;;;0.73;;
13866;SDS011;7003;46.982;15.248;2024-03-25T11:46:51;0.50;;;0.50;;
13866;SDS011;7003;46.982;15.248;2024-03-25T11:49:23;2.15;;;0.90;;
13866;SDS011;7003;46.982;15.248;2024-03-25T11:51:55;1.60;;;0.95;;
13866;SDS011;7003;46.982;15.248;2024-03-25T11:54:35;6.07;;;1.38;;
13866;SDS011;7003;46.982;15.248;2024-03-25T11:57:04;0.30;;;0.30;;
13866;SDS011;7003;46.982;15.248;2024-03-25T11:59:34;0.80;;;0.70;;
13866;SDS011;7003;46.982;15.248;2024-03-25T12:02:07;0.32;;;0.32;;
13866;SDS011;7003;46.982;15.248;2024-03-25T12:04:35;0.47;;;0.47;;
13866;SDS011;7003;46.982;15.248;2024-03-25T12:07:06;0.50;;;0.50;;
13866;SDS011;7003;46.982;15.248;2024-03-25T12:09:35;0.80;;;0.70;;
13866;SDS011;7003;46.982;15.248;2024-03-25T12:12:21;0.52;;;0.52;;
13866;SDS011;7003;46.982;15.248;2024-03-25T12:14:53;0.50;;;0.45;;
13866;SDS011;7003;46.982;15.248;2024-03-25T12:17:27;0.60;;;0.60;;
13866;SDS011;7003;46.982;15.248;2024-03-25T12:20:04;0.57;;;0.57;;
13866;SDS011;7003;46.982;15.248;2024-03-25T12:22:37;0.73;;;0.73;;
13866;SDS011;7003;46.982;15.248;2024-03-25T12:25:06;0.95;;;0.93;;
13866;SDS011;7003;46.982;15.248;2024-03-25T12:27:35;0.95;;;0.73;;
13866;SDS011;7003;46.982;15.248;2024-03-25T12:30:08;0.47;;;0.35;;
13866;SDS011;7003;46.982;15.248;2024-03-25T12:32:39;1.27;;;1.17;;
13866;SDS011;7003;46.982;15.248;2024-03-25T12:35:12;0.57;;;0.55;;
13866;SDS011;7003;46.982;15.248;2024-03-25T12:37:44;0.82;;;0.82;;
13866;SDS011;7003;46.982;15.248;2024-03-25T12:40:25;1.55;;;0.70;;
13866;SDS011;7003;46.982;15.248;2024-03-25T12:42:58;0.45;;;0.45;;
13866;SDS011;7003;46.982;15.248;2024-03-25T12:45:28;0.85;;;0.50;;
13866;SDS011;7003;46.982;15.248;2024-03-25T12:48:00;0.90;;;0.55;;
13866;SDS011;7003;46.982;15.248;2024-03-25T12:50:32;1.20;;;0.75;;
13866;SDS011;7003;46.982;15.248;2024-03-25T12:53:00;0.65;;;0.65;;
13866;SDS011;7003;46.982;15.248;2024-03-25T12:55:30;0.73;;;0.63;;
13866;SDS011;7003;46.982;15.248;2024-03-25T12:58:04;0.70;;;0.70;;
13866;SDS011;7003;46.982;15.248;2024-03-25T13:00:36;0.40;;;0.40;;
13866;SDS011;7003;46.982;15.248;2024-03-25T13:03:08;0.55;;;0.55;;
13866;SDS011;7003;46.982;15.248;2024-03-25T13:05:37;0.70;;;0.60;;
13866;SDS011;7003;46.982;15.248;2024-03-25T13:08:10;0.70;;;0.65;;
13866;SDS011;7003;46.982;15.248;2024-03-25T13:10:43;1.38;;;0.77;;
13866;SDS011;7003;46.982;15.248;2024-03-25T13:13:14;0.50;;;0.50;;
13866;SDS011;7003;46.982;15.248;2024-03-25T13:15:46;3.90;;;1.20;;
13866;SDS011;7003;46.982;15.248;2024-03-25T13:18:20;0.60;;;0.60;;
13866;SDS011;7003;46.982;15.248;2024-03-25T13:20:50;0.77;;;0.77;;
13866;SDS011;7003;46.982;15.248;2024-03-25T13:23:37;0.45;;;0.45;;
13866;SDS011;7003;46.982;15.248;2024-03-25T13:26:06;1.00;;;0.90;;
13866;SDS011;7003;46.982;15.248;2024-03-25T13:28:36;0.60;;;0.60;;
13866;SDS011;7003;46.982;15.248;2024-03-25T13:31:04;0.60;;;0.60;;
13866;SDS011;7003;46.982;15.248;2024-03-25T13:33:34;1.08;;;0.60;;
13866;SDS011;7003;46.982;15.248;2024-03-25T13:36:07;0.45;;;0.40;;
13866;SDS011;7003;46.982;15.248;2024-03-25T13:38:36;0.73;;;0.55;;
13866;SDS011;7003;46.982;15.248;2024-03-25T13:41:05;3.13;;;0.68;;
13866;SDS011;7003;46.982;15.248;2024-03-25T13:43:33;4.50;;;1.13;;
13866;SDS011;7003;46.982;15.248;2024-03-25T13:46:02;1.13;;;0.70;;
13866;SDS011;7003;46.982;15.248;2024-03-25T13:48:30;0.68;;;0.68;;
13866;SDS011;7003;46.982;15.248;2024-03-25T13:51:01;0.70;;;0.70;;
13866;SDS011;7003;46.982;15.248;2024-03-25T13:53:29;1.10;;;1.00;;
13866;SDS011;7003;46.982;15.248;2024-03-25T13:55:58;0.85;;;0.85;;
13866;SDS011;7003;46.982;15.248;2024-03-25T13:58:27;0.50;;;0.50;;
13866;SDS011;7003;46.982;15.248;2024-03-25T14:01:00;0.50;;;0.50;;
13866;SDS011;7003;46.982;15.248;2024-03-25T14:03:28;4.90;;;0.88;;
13866;SDS011;7003;46.982;15.248;2024-03-25T14:06:02;0.88;;;0.68;;
13866;SDS011;7003;46.982;15.248;2024-03-25T14:08:32;0.80;;;0.55;;
13866;SDS011;7003;46.982;15.248;2024-03-25T14:11:01;0.50;;;0.50;;
13866;SDS011;7003;46.982;15.248;2024-03-25T14:13:31;0.60;;;0.60;;
13866;SDS011;7003;46.982;15.248;2024-03-25T14:16:00;0.60;;;0.60;;
13866;SDS011;7003;46.982;15.248;2024-03-25T14:18:30;1.52;;;0.75;;
13866;SDS011;7003;46.982;15.248;2024-03-25T14:21:04;0.70;;;0.50;;
13866;SDS011;7003;46.982;15.248;2024-03-25T14:23:34;1.27;;;0.70;;
13866;SDS011;7003;46.982;15.248;2024-03-25T14:26:03;1.85;;;0.50;;
13866;SDS011;7003;46.982;15.248;2024-03-25T14:28:33;0.85;;;0.60;;
13866;SDS011;7003;46.982;15.248;2024-03-25T14:31:04;0.50;;;0.50;;
13866;SDS011;7003;46.982;15.248;2024-03-25T14:33:36;1.25;;;0.80;;
13866;SDS011;7003;46.982;15.248;2024-03-25T14:36:06;0.70;;;0.70;;
13866;SDS011;7003;46.982;15.248;2024-03-25T14:38:36;0.75;;;0.75;;
13866;SDS011;7003;46.982;15.248;2024-03-25T14:41:08;0.60;;;0.60;;
13866;SDS011;7003;46.982;15.248;2024-03-25T14:43:41;1.00;;;0.73;;
13866;SDS011;7003;46.982;15.248;2024-03-25T14:46:10;2.17;;;1.48;;
13866;SDS011;7003;46.982;15.248;2024-03-25T14:48:38;0.98;;;0.93;;
13866;SDS011;7003;46.982;15.248;2024-03-25T14:51:09;0.52;;;0.52;;
13866;SDS011;7003;46.982;15.248;2024-03-25T14:53:37;1.00;;;0.90;;
13866;SDS011;7003;46.982;15.248;2024-03-25T14:56:10;1.23;;;1.00;;
13866;SDS011;7003;46.982;15.248;2024-03-25T14:58:40;0.60;;;0.55;;
13866;SDS011;7003;46.982;15.248;2024-03-25T15:01:10;1.13;;;0.93;;
13866;SDS011;7003;46.982;15.248;2024-03-25T15:03:39;0.60;;;0.60;;